sensor_id;sensor_type;location;lat;lon;timestamp;P1;durP1;ratioP1;P2;durP2;ratioP2
3299;SDS011;1662;49.310;8.134;2023-12-22T00:01:23;3.53;;;1.27;;
3299;SDS011;1662;49.310;8.134;2023-12-22T00:03:49;2.00;;;1.40;;
3299;SDS011;1662;49.310;8.134;2023-12-22T00:06:15;1.37;;;1.20;;
3299;SDS011;1662;49.310;8.134;2023-12-22T00:08:43;2.80;;;1.20;;
3299;SDS011;1662;49.310;8.134;2023-12-22T00:11:08;1.53;;;1.43;;
3299;SDS011;1662;49.310;8.134;2023-12-22T00:13:34;1.67;;;1.30;;
3299;SDS011;1662;49.310;8.134;2023-12-22T00:16:02;5.53;;;1.57;;
3299;SDS011;1662;49.310;8.134;2023-12-22T00:18:28;3.60;;;1.70;;
3299;SDS011;1662;49.310;8.134;2023-12-22T00:20:53;2.00;;;1.30;;
3299;SDS011;1662;49.310;8.134;2023-12-22T00:23:19;4.60;;;1.30;;
3299;SDS011;1662;49.310;8.134;2023-12-22T00:25:44;4.70;;;1.40;;
3299;SDS011;1662;49.310;8.134;2023-12-22T00:28:10;4.20;;;1.97;;
3299;SDS011;1662;49.310;8.134;2023-12-22T00:30:36;3.47;;;1.50;;
3299;SDS011;1662;49.310;8.134;2023-12-22T00:33:01;2.90;;;1.50;;
3299;SDS011;1662;49.310;8.134;2023-12-22T00:35:27;7.63;;;1.87;;
3299;SDS011;1662;49.310;8.134;2023-12-22T00:37:53;1.60;;;1.50;;
3299;SDS011;1662;49.310;8.134;2023-12-22T00:40:19;3.07;;;1.23;;
3299;SDS011;1662;49.310;8.134;2023-12-22T00:42:44;2.17;;;1.60;;
3299;SDS011;1662;49.310;8.134;2023-12-22T00:45:10;4.53;;;1.80;;
3299;SDS011;1662;49.310;8.134;2023-12-22T00:47:36;2.93;;;1.63;;
3299;SDS011;1662;49.310;8.134;2023-12-22T00:50:02;5.93;;;1.97;;
3299;SDS011;1662;49.310;8.134;2023-12-22T00:52:29;1.33;;;1.20;;
3299;SDS011;1662;49.310;8.134;2023-12-22T00:54:55;2.20;;;1.70;;
3299;SDS011;1662;49.310;8.134;2023-12-22T00:57:23;6.97;;;1.40;;
3299;SDS011;1662;49.310;8.134;2023-12-22T00:59:51;5.33;;;1.97;;
3299;SDS011;1662;49.310;8.134;2023-12-22T01:02:19;1.70;;;1.60;;
3299;SDS011;1662;49.310;8.134;2023-12-22T01:04:46;4.40;;;2.33;;
3299;SDS011;1662;49.310;8.134;2023-12-22T01:07:12;2.30;;;1.50;;
3299;SDS011;1662;49.310;8.134;2023-12-22T01:09:39;3.17;;;1.40;;
3299;SDS011;1662;49.310;8.134;2023-12-22T01:12:04;3.63;;;1.77;;
3299;SDS011;1662;49.310;8.134;2023-12-22T01:14:31;2.43;;;1.77;;
3299;SDS011;1662;49.310;8.134;2023-12-22T01:16:57;1.70;;;1.60;;
3299;SDS011;1662;49.310;8.134;2023-12-22T01:19:25;3.03;;;2.03;;
3299;SDS011;1662;49.310;8.134;2023-12-22T01:21:50;6.57;;;2.60;;
3299;SDS011;1662;49.310;8.134;2023-12-22T01:24:16;5.20;;;1.80;;
3299;SDS011;1662;49.310;8.134;2023-12-22T01:26:42;1.57;;;1.17;;
3299;SDS011;1662;49.310;8.134;2023-12-22T01:29:09;2.70;;;1.60;;
3299;SDS011;1662;49.310;8.134;2023-12-22T01:31:35;5.80;;;2.87;;
3299;SDS011;1662;49.310;8.134;2023-12-22T01:34:01;5.10;;;1.80;;
3299;SDS011;1662;49.310;8.134;2023-12-22T01:36:26;6.83;;;1.97;;
3299;SDS011;1662;49.310;8.134;2023-12-22T01:38:52;3.90;;;1.50;;
3299;SDS011;1662;49.310;8.134;2023-12-22T01:41:18;2.10;;;1.60;;
3299;SDS011;1662;49.310;8.134;2023-12-22T01:43:43;3.33;;;1.70;;
3299;SDS011;1662;49.310;8.134;2023-12-22T01:46:09;3.73;;;1.50;;
3299;SDS011;1662;49.310;8.134;2023-12-22T01:48:36;3.07;;;1.60;;
3299;SDS011;1662;49.310;8.134;2023-12-22T01:51:02;4.60;;;1.67;;
3299;SDS011;1662;49.310;8.134;2023-12-22T01:53:29;3.17;;;1.60;;
3299;SDS011;1662;49.310;8.134;2023-12-22T01:55:56;2.60;;;1.77;;
3299;SDS011;1662;49.310;8.134;2023-12-22T01:58:24;3.40;;;1.70;;
3299;SDS011;1662;49.310;8.134;2023-12-22T02:00:54;3.43;;;1.50;;
3299;SDS011;1662;49.310;8.134;2023-12-22T02:03:21;1.50;;;1.40;;
3299;SDS011;1662;49.310;8.134;2023-12-22T02:05:48;2.20;;;1.63;;
3299;SDS011;1662;49.310;8.134;2023-12-22T02:08:15;2.40;;;1.63;;
3299;SDS011;1662;49.310;8.134;2023-12-22T02:10:43;3.47;;;1.87;;
3299;SDS011;1662;49.310;8.134;2023-12-22T02:13:09;3.50;;;2.00;;
3299;SDS011;1662;49.310;8.134;2023-12-22T02:15:38;3.50;;;1.87;;
3299;SDS011;1662;49.310;8.134;2023-12-22T02:18:09;8.60;;;1.83;;
3299;SDS011;1662;49.310;8.134;2023-12-22T02:20:39;7.80;;;2.10;;
3299;SDS011;1662;49.310;8.134;2023-12-22T02:23:05;2.30;;;1.63;;
3299;SDS011;1662;49.310;8.134;2023-12-22T02:25:31;3.10;;;1.57;;
3299;SDS011;1662;49.310;8.134;2023-12-22T02:27:58;3.13;;;1.40;;
3299;SDS011;1662;49.310;8.134;2023-12-22T02:30:52;1.53;;;1.43;;
3299;SDS011;1662;49.310;8.134;2023-12-22T02:33:34;3.73;;;1.63;;
3299;SDS011;1662;49.310;8.134;2023-12-22T02:36:03;3.60;;;2.00;;
3299;SDS011;1662;49.310;8.134;2023-12-22T02:38:31;5.93;;;2.27;;
3299;SDS011;1662;49.310;8.134;2023-12-22T02:40:58;6.13;;;2.03;;
3299;SDS011;1662;49.310;8.134;2023-12-22T02:43:24;6.57;;;2.10;;
3299;SDS011;1662;49.310;8.134;2023-12-22T02:45:50;2.90;;;1.67;;
3299;SDS011;1662;49.310;8.134;2023-12-22T02:48:16;6.43;;;1.97;;
3299;SDS011;1662;49.310;8.134;2023-12-22T02:50:42;4.03;;;1.93;;
3299;SDS011;1662;49.310;8.134;2023-12-22T02:53:07;6.03;;;2.10;;
3299;SDS011;1662;49.310;8.134;2023-12-22T02:55:35;2.03;;;1.50;;
3299;SDS011;1662;49.310;8.134;2023-12-22T02:58:03;2.57;;;1.47;;
3299;SDS011;1662;49.310;8.134;2023-12-22T03:00:29;4.03;;;2.13;;
3299;SDS011;1662;49.310;8.134;2023-12-22T03:02:54;5.70;;;1.67;;
3299;SDS011;1662;49.310;8.134;2023-12-22T03:05:20;5.47;;;2.13;;
3299;SDS011;1662;49.310;8.134;2023-12-22T03:07:45;6.30;;;3.73;;
3299;SDS011;1662;49.310;8.134;2023-12-22T03:10:13;2.47;;;1.87;;
3299;SDS011;1662;49.310;8.134;2023-12-22T03:12:39;2.40;;;1.90;;
3299;SDS011;1662;49.310;8.134;2023-12-22T03:15:05;3.63;;;1.67;;
3299;SDS011;1662;49.310;8.134;2023-12-22T03:17:31;3.63;;;1.87;;
3299;SDS011;1662;49.310;8.134;2023-12-22T03:19:56;3.70;;;1.60;;
3299;SDS011;1662;49.310;8.134;2023-12-22T03:22:22;2.10;;;1.80;;
3299;SDS011;1662;49.310;8.134;2023-12-22T03:24:48;4.40;;;1.57;;
3299;SDS011;1662;49.310;8.134;2023-12-22T03:27:18;5.00;;;1.90;;
3299;SDS011;1662;49.310;8.134;2023-12-22T03:29:45;2.70;;;1.30;;
3299;SDS011;1662;49.310;8.134;2023-12-22T03:32:10;2.50;;;1.20;;
3299;SDS011;1662;49.310;8.134;2023-12-22T03:34:36;3.50;;;1.10;;
3299;SDS011;1662;49.310;8.134;2023-12-22T03:37:01;1.20;;;1.00;;
3299;SDS011;1662;49.310;8.134;2023-12-22T03:39:27;1.47;;;1.10;;
3299;SDS011;1662;49.310;8.134;2023-12-22T03:41:53;1.20;;;0.90;;
3299;SDS011;1662;49.310;8.134;2023-12-22T03:44:18;2.27;;;1.27;;
3299;SDS011;1662;49.310;8.134;2023-12-22T03:46:44;3.07;;;1.73;;
3299;SDS011;1662;49.310;8.134;2023-12-22T03:49:12;1.83;;;1.40;;
3299;SDS011;1662;49.310;8.134;2023-12-22T03:51:40;2.27;;;1.70;;
3299;SDS011;1662;49.310;8.134;2023-12-22T03:54:06;4.73;;;1.47;;
3299;SDS011;1662;49.310;8.134;2023-12-22T03:56:32;6.00;;;1.90;;
3299;SDS011;1662;49.310;8.134;2023-12-22T03:58:57;5.30;;;2.43;;
3299;SDS011;1662;49.310;8.134;2023-12-22T04:01:25;2.40;;;1.50;;
3299;SDS011;1662;49.310;8.134;2023-12-22T04:03:51;8.10;;;1.93;;
3299;SDS011;1662;49.310;8.134;2023-12-22T04:06:16;3.57;;;1.60;;
3299;SDS011;1662;49.310;8.134;2023-12-22T04:08:42;3.03;;;1.67;;
3299;SDS011;1662;49.310;8.134;2023-12-22T04:11:07;4.97;;;1.80;;
3299;SDS011;1662;49.310;8.134;2023-12-22T04:13:33;2.83;;;1.40;;
3299;SDS011;1662;49.310;8.134;2023-12-22T04:15:58;1.40;;;1.33;;
3299;SDS011;1662;49.310;8.134;2023-12-22T04:18:24;4.63;;;1.50;;
3299;SDS011;1662;49.310;8.134;2023-12-22T04:20:50;2.13;;;1.50;;
3299;SDS011;1662;49.310;8.134;2023-12-22T04:23:18;3.00;;;1.57;;
3299;SDS011;1662;49.310;8.134;2023-12-22T04:25:44;2.90;;;1.97;;
3299;SDS011;1662;49.310;8.134;2023-12-22T04:28:09;1.90;;;1.20;;
3299;SDS011;1662;49.310;8.134;2023-12-22T04:30:35;5.27;;;2.00;;
3299;SDS011;1662;49.310;8.134;2023-12-22T04:33:01;5.20;;;2.20;;
3299;SDS011;1662;49.310;8.134;2023-12-22T04:35:27;4.23;;;2.00;;
3299;SDS011;1662;49.310;8.134;2023-12-22T04:37:53;3.23;;;1.60;;
3299;SDS011;1662;49.310;8.134;2023-12-22T04:40:18;4.00;;;2.00;;
3299;SDS011;1662;49.310;8.134;2023-12-22T04:42:44;6.33;;;2.20;;
3299;SDS011;1662;49.310;8.134;2023-12-22T04:45:12;1.57;;;1.40;;
3299;SDS011;1662;49.310;8.134;2023-12-22T04:47:38;4.00;;;1.67;;
3299;SDS011;1662;49.310;8.134;2023-12-22T04:50:04;5.17;;;2.10;;
3299;SDS011;1662;49.310;8.134;2023-12-22T04:52:29;4.87;;;2.07;;
3299;SDS011;1662;49.310;8.134;2023-12-22T04:54:57;2.10;;;1.77;;
3299;SDS011;1662;49.310;8.134;2023-12-22T04:57:23;5.07;;;1.90;;
3299;SDS011;1662;49.310;8.134;2023-12-22T04:59:48;3.23;;;1.73;;
3299;SDS011;1662;49.310;8.134;2023-12-22T05:02:14;2.47;;;1.87;;
3299;SDS011;1662;49.310;8.134;2023-12-22T05:04:40;5.47;;;2.43;;
3299;SDS011;1662;49.310;8.134;2023-12-22T05:07:05;3.93;;;1.90;;
3299;SDS011;1662;49.310;8.134;2023-12-22T05:09:32;4.30;;;2.00;;
3299;SDS011;1662;49.310;8.134;2023-12-22T05:12:00;9.10;;;2.20;;
3299;SDS011;1662;49.310;8.134;2023-12-22T05:14:28;5.20;;;2.40;;
3299;SDS011;1662;49.310;8.134;2023-12-22T05:16:54;8.73;;;2.73;;
3299;SDS011;1662;49.310;8.134;2023-12-22T05:19:21;5.10;;;2.00;;
3299;SDS011;1662;49.310;8.134;2023-12-22T05:21:47;5.63;;;2.23;;
3299;SDS011;1662;49.310;8.134;2023-12-22T05:24:14;12.63;;;2.50;;
3299;SDS011;1662;49.310;8.134;2023-12-22T05:26:42;5.63;;;2.93;;
3299;SDS011;1662;49.310;8.134;2023-12-22T05:29:07;3.40;;;2.57;;
3299;SDS011;1662;49.310;8.134;2023-12-22T05:31:34;5.70;;;2.40;;
3299;SDS011;1662;49.310;8.134;2023-12-22T05:33:59;4.43;;;1.87;;
3299;SDS011;1662;49.310;8.134;2023-12-22T05:36:25;9.53;;;3.30;;
3299;SDS011;1662;49.310;8.134;2023-12-22T05:38:53;6.73;;;2.17;;
3299;SDS011;1662;49.310;8.134;2023-12-22T05:41:19;4.67;;;2.20;;
3299;SDS011;1662;49.310;8.134;2023-12-22T05:43:44;7.10;;;2.67;;
3299;SDS011;1662;49.310;8.134;2023-12-22T05:46:10;3.70;;;2.27;;
3299;SDS011;1662;49.310;8.134;2023-12-22T05:48:36;7.37;;;2.50;;
3299;SDS011;1662;49.310;8.134;2023-12-22T05:51:01;5.33;;;2.43;;
3299;SDS011;1662;49.310;8.134;2023-12-22T05:53:32;6.40;;;2.00;;
3299;SDS011;1662;49.310;8.134;2023-12-22T05:55:59;5.13;;;2.27;;
3299;SDS011;1662;49.310;8.134;2023-12-22T05:58:24;8.30;;;2.67;;
3299;SDS011;1662;49.310;8.134;2023-12-22T06:00:52;8.57;;;2.30;;
3299;SDS011;1662;49.310;8.134;2023-12-22T06:03:17;6.03;;;2.00;;
3299;SDS011;1662;49.310;8.134;2023-12-22T06:05:43;5.73;;;2.47;;
3299;SDS011;1662;49.310;8.134;2023-12-22T06:08:09;2.83;;;2.50;;
3299;SDS011;1662;49.310;8.134;2023-12-22T06:10:34;4.20;;;1.83;;
3299;SDS011;1662;49.310;8.134;2023-12-22T06:13:01;5.17;;;2.37;;
3299;SDS011;1662;49.310;8.134;2023-12-22T06:15:28;4.67;;;1.80;;
3299;SDS011;1662;49.310;8.134;2023-12-22T06:17:55;4.60;;;2.10;;
3299;SDS011;1662;49.310;8.134;2023-12-22T06:20:20;6.90;;;1.83;;
3299;SDS011;1662;49.310;8.134;2023-12-22T06:22:46;5.03;;;2.73;;
3299;SDS011;1662;49.310;8.134;2023-12-22T06:25:15;8.33;;;2.40;;
3299;SDS011;1662;49.310;8.134;2023-12-22T06:27:40;5.67;;;1.60;;
3299;SDS011;1662;49.310;8.134;2023-12-22T06:30:06;3.80;;;1.93;;
3299;SDS011;1662;49.310;8.134;2023-12-22T06:32:32;2.70;;;1.47;;
3299;SDS011;1662;49.310;8.134;2023-12-22T06:34:58;5.90;;;2.00;;
3299;SDS011;1662;49.310;8.134;2023-12-22T06:37:26;3.83;;;1.73;;
3299;SDS011;1662;49.310;8.134;2023-12-22T06:39:51;2.70;;;1.30;;
3299;SDS011;1662;49.310;8.134;2023-12-22T06:42:17;2.43;;;1.53;;
3299;SDS011;1662;49.310;8.134;2023-12-22T06:44:42;4.80;;;1.30;;
3299;SDS011;1662;49.310;8.134;2023-12-22T06:47:11;3.73;;;1.73;;
3299;SDS011;1662;49.310;8.134;2023-12-22T06:49:39;4.73;;;1.60;;
3299;SDS011;1662;49.310;8.134;2023-12-22T06:52:04;2.93;;;1.10;;
3299;SDS011;1662;49.310;8.134;2023-12-22T06:54:30;2.53;;;1.43;;
3299;SDS011;1662;49.310;8.134;2023-12-22T06:56:56;1.50;;;1.40;;
3299;SDS011;1662;49.310;8.134;2023-12-22T06:59:21;2.13;;;1.80;;
3299;SDS011;1662;49.310;8.134;2023-12-22T07:01:47;4.20;;;2.20;;
3299;SDS011;1662;49.310;8.134;2023-12-22T07:04:12;1.57;;;1.30;;
3299;SDS011;1662;49.310;8.134;2023-12-22T07:06:38;6.70;;;2.03;;
3299;SDS011;1662;49.310;8.134;2023-12-22T07:09:37;1.90;;;1.80;;
3299;SDS011;1662;49.310;8.134;2023-12-22T07:11:56;3.30;;;1.67;;
3299;SDS011;1662;49.310;8.134;2023-12-22T07:14:22;4.00;;;1.60;;
3299;SDS011;1662;49.310;8.134;2023-12-22T07:16:47;2.10;;;1.37;;
3299;SDS011;1662;49.310;8.134;2023-12-22T07:19:13;2.83;;;1.40;;
3299;SDS011;1662;49.310;8.134;2023-12-22T07:21:39;1.97;;;1.43;;
3299;SDS011;1662;49.310;8.134;2023-12-22T07:24:07;2.13;;;1.93;;
3299;SDS011;1662;49.310;8.134;2023-12-22T07:26:33;6.33;;;1.30;;
3299;SDS011;1662;49.310;8.134;2023-12-22T07:28:58;8.10;;;2.40;;
3299;SDS011;1662;49.310;8.134;2023-12-22T07:31:24;4.10;;;1.73;;
3299;SDS011;1662;49.310;8.134;2023-12-22T07:33:50;3.03;;;1.40;;
3299;SDS011;1662;49.310;8.134;2023-12-22T07:36:16;3.43;;;1.87;;
3299;SDS011;1662;49.310;8.134;2023-12-22T07:38:43;3.57;;;1.90;;
3299;SDS011;1662;49.310;8.134;2023-12-22T07:41:09;2.83;;;1.70;;
3299;SDS011;1662;49.310;8.134;2023-12-22T07:43:35;2.20;;;1.80;;
3299;SDS011;1662;49.310;8.134;2023-12-22T07:46:01;4.37;;;1.30;;
3299;SDS011;1662;49.310;8.134;2023-12-22T07:48:27;6.53;;;1.90;;
3299;SDS011;1662;49.310;8.134;2023-12-22T07:50:53;2.10;;;1.27;;
3299;SDS011;1662;49.310;8.134;2023-12-22T07:53:19;7.33;;;1.80;;
3299;SDS011;1662;49.310;8.134;2023-12-22T07:55:44;5.70;;;1.80;;
3299;SDS011;1662;49.310;8.134;2023-12-22T07:58:11;6.20;;;2.07;;
3299;SDS011;1662;49.310;8.134;2023-12-22T08:00:40;2.70;;;1.60;;
3299;SDS011;1662;49.310;8.134;2023-12-22T08:03:06;6.63;;;2.10;;
3299;SDS011;1662;49.310;8.134;2023-12-22T08:05:31;7.17;;;2.87;;
3299;SDS011;1662;49.310;8.134;2023-12-22T08:07:58;1.87;;;1.77;;
3299;SDS011;1662;49.310;8.134;2023-12-22T08:10:26;11.00;;;2.20;;
3299;SDS011;1662;49.310;8.134;2023-12-22T08:12:52;4.93;;;2.73;;
3299;SDS011;1662;49.310;8.134;2023-12-22T08:15:18;4.97;;;2.17;;
3299;SDS011;1662;49.310;8.134;2023-12-22T08:17:49;3.37;;;2.23;;
3299;SDS011;1662;49.310;8.134;2023-12-22T08:20:18;2.43;;;2.13;;
3299;SDS011;1662;49.310;8.134;2023-12-22T08:22:45;5.23;;;2.90;;
3299;SDS011;1662;49.310;8.134;2023-12-22T08:25:11;8.03;;;2.50;;
3299;SDS011;1662;49.310;8.134;2023-12-22T08:27:37;12.43;;;3.10;;
3299;SDS011;1662;49.310;8.134;2023-12-22T08:30:02;5.73;;;2.70;;
3299;SDS011;1662;49.310;8.134;2023-12-22T08:32:28;8.33;;;3.53;;
3299;SDS011;1662;49.310;8.134;2023-12-22T08:34:54;5.60;;;2.60;;
3299;SDS011;1662;49.310;8.134;2023-12-22T08:37:20;12.20;;;3.87;;
3299;SDS011;1662;49.310;8.134;2023-12-22T08:39:45;12.07;;;3.10;;
3299;SDS011;1662;49.310;8.134;2023-12-22T08:42:11;5.47;;;3.30;;
3299;SDS011;1662;49.310;8.134;2023-12-22T08:44:37;13.50;;;3.37;;
3299;SDS011;1662;49.310;8.134;2023-12-22T08:47:03;7.20;;;3.10;;
3299;SDS011;1662;49.310;8.134;2023-12-22T08:49:28;14.53;;;3.87;;
3299;SDS011;1662;49.310;8.134;2023-12-22T08:51:54;12.60;;;4.60;;
3299;SDS011;1662;49.310;8.134;2023-12-22T08:54:22;10.83;;;4.20;;
3299;SDS011;1662;49.310;8.134;2023-12-22T08:56:47;17.97;;;4.27;;
3299;SDS011;1662;49.310;8.134;2023-12-22T08:59:13;8.73;;;5.10;;
3299;SDS011;1662;49.310;8.134;2023-12-22T09:01:38;10.10;;;3.53;;
3299;SDS011;1662;49.310;8.134;2023-12-22T09:04:06;13.33;;;3.70;;
3299;SDS011;1662;49.310;8.134;2023-12-22T09:06:31;10.57;;;4.63;;
3299;SDS011;1662;49.310;8.134;2023-12-22T09:08:57;7.00;;;3.07;;
3299;SDS011;1662;49.310;8.134;2023-12-22T09:11:23;7.90;;;4.67;;
3299;SDS011;1662;49.310;8.134;2023-12-22T09:13:48;7.70;;;3.90;;
3299;SDS011;1662;49.310;8.134;2023-12-22T09:16:22;9.20;;;3.80;;
3299;SDS011;1662;49.310;8.134;2023-12-22T09:18:50;8.57;;;3.50;;
3299;SDS011;1662;49.310;8.134;2023-12-22T09:21:17;12.97;;;3.57;;
3299;SDS011;1662;49.310;8.134;2023-12-22T09:23:44;9.17;;;3.60;;
3299;SDS011;1662;49.310;8.134;2023-12-22T09:26:13;14.80;;;3.67;;
3299;SDS011;1662;49.310;8.134;2023-12-22T09:28:39;10.23;;;3.60;;
3299;SDS011;1662;49.310;8.134;2023-12-22T09:31:06;15.27;;;4.23;;
3299;SDS011;1662;49.310;8.134;2023-12-22T09:33:35;9.60;;;3.93;;
3299;SDS011;1662;49.310;8.134;2023-12-22T09:36:01;11.07;;;3.87;;
3299;SDS011;1662;49.310;8.134;2023-12-22T09:38:27;16.00;;;3.70;;
3299;SDS011;1662;49.310;8.134;2023-12-22T09:40:54;17.10;;;5.03;;
3299;SDS011;1662;49.310;8.134;2023-12-22T09:43:21;14.83;;;4.47;;
3299;SDS011;1662;49.310;8.134;2023-12-22T09:45:47;9.77;;;3.83;;
3299;SDS011;1662;49.310;8.134;2023-12-22T09:48:14;14.10;;;4.60;;
3299;SDS011;1662;49.310;8.134;2023-12-22T09:50:46;10.30;;;4.00;;
3299;SDS011;1662;49.310;8.134;2023-12-22T09:53:21;16.83;;;4.70;;
3299;SDS011;1662;49.310;8.134;2023-12-22T09:55:49;16.60;;;3.90;;
3299;SDS011;1662;49.310;8.134;2023-12-22T09:58:16;14.20;;;3.93;;
3299;SDS011;1662;49.310;8.134;2023-12-22T10:00:43;5.60;;;3.10;;
3299;SDS011;1662;49.310;8.134;2023-12-22T10:03:11;8.93;;;4.00;;
3299;SDS011;1662;49.310;8.134;2023-12-22T10:05:38;18.03;;;4.30;;
3299;SDS011;1662;49.310;8.134;2023-12-22T10:08:08;9.77;;;4.47;;
3299;SDS011;1662;49.310;8.134;2023-12-22T10:10:40;13.53;;;3.90;;
3299;SDS011;1662;49.310;8.134;2023-12-22T10:13:06;14.90;;;3.70;;
3299;SDS011;1662;49.310;8.134;2023-12-22T10:15:37;7.43;;;3.20;;
3299;SDS011;1662;49.310;8.134;2023-12-22T10:18:08;9.13;;;3.47;;
3299;SDS011;1662;49.310;8.134;2023-12-22T10:20:34;15.13;;;3.40;;
3299;SDS011;1662;49.310;8.134;2023-12-22T10:23:00;8.80;;;2.60;;
3299;SDS011;1662;49.310;8.134;2023-12-22T10:25:32;13.13;;;3.77;;
3299;SDS011;1662;49.310;8.134;2023-12-22T10:27:58;11.47;;;3.40;;
3299;SDS011;1662;49.310;8.134;2023-12-22T10:30:27;9.33;;;3.90;;
3299;SDS011;1662;49.310;8.134;2023-12-22T10:32:53;7.67;;;2.90;;
3299;SDS011;1662;49.310;8.134;2023-12-22T10:35:22;4.77;;;3.10;;
3299;SDS011;1662;49.310;8.134;2023-12-22T10:37:48;7.13;;;3.07;;
3299;SDS011;1662;49.310;8.134;2023-12-22T10:40:17;5.83;;;3.70;;
3299;SDS011;1662;49.310;8.134;2023-12-22T10:42:43;18.27;;;3.37;;
3299;SDS011;1662;49.310;8.134;2023-12-22T10:45:09;10.57;;;4.60;;
3299;SDS011;1662;49.310;8.134;2023-12-22T10:47:34;9.60;;;3.20;;
3299;SDS011;1662;49.310;8.134;2023-12-22T10:50:03;10.37;;;3.30;;
3299;SDS011;1662;49.310;8.134;2023-12-22T10:52:32;7.77;;;2.83;;
3299;SDS011;1662;49.310;8.134;2023-12-22T10:54:58;6.60;;;2.50;;
3299;SDS011;1662;49.310;8.134;2023-12-22T10:57:25;6.33;;;3.07;;
3299;SDS011;1662;49.310;8.134;2023-12-22T10:59:52;8.60;;;2.93;;
3299;SDS011;1662;49.310;8.134;2023-12-22T11:02:22;3.87;;;2.30;;
3299;SDS011;1662;49.310;8.134;2023-12-22T11:04:55;7.37;;;2.60;;
3299;SDS011;1662;49.310;8.134;2023-12-22T11:07:25;7.83;;;2.87;;
3299;SDS011;1662;49.310;8.134;2023-12-22T11:09:53;6.67;;;2.17;;
3299;SDS011;1662;49.310;8.134;2023-12-22T11:12:23;4.17;;;2.30;;
3299;SDS011;1662;49.310;8.134;2023-12-22T11:14:50;5.83;;;2.83;;
3299;SDS011;1662;49.310;8.134;2023-12-22T11:17:19;4.17;;;2.03;;
3299;SDS011;1662;49.310;8.134;2023-12-22T11:19:47;9.00;;;2.60;;
3299;SDS011;1662;49.310;8.134;2023-12-22T11:22:18;2.40;;;1.97;;
3299;SDS011;1662;49.310;8.134;2023-12-22T11:24:47;3.27;;;1.77;;
3299;SDS011;1662;49.310;8.134;2023-12-22T11:27:20;4.23;;;2.20;;
3299;SDS011;1662;49.310;8.134;2023-12-22T11:29:49;3.00;;;1.53;;
3299;SDS011;1662;49.310;8.134;2023-12-22T11:32:16;5.27;;;1.70;;
3299;SDS011;1662;49.310;8.134;2023-12-22T11:34:43;1.50;;;1.40;;
3299;SDS011;1662;49.310;8.134;2023-12-22T11:37:13;3.23;;;1.67;;
3299;SDS011;1662;49.310;8.134;2023-12-22T11:39:43;1.80;;;1.40;;
3299;SDS011;1662;49.310;8.134;2023-12-22T11:42:14;1.10;;;1.10;;
3299;SDS011;1662;49.310;8.134;2023-12-22T11:44:43;2.40;;;1.83;;
3299;SDS011;1662;49.310;8.134;2023-12-22T11:47:09;3.17;;;1.53;;
3299;SDS011;1662;49.310;8.134;2023-12-22T11:49:38;2.30;;;1.60;;
3299;SDS011;1662;49.310;8.134;2023-12-22T11:52:13;2.07;;;1.17;;
3299;SDS011;1662;49.310;8.134;2023-12-22T11:54:43;2.43;;;1.10;;
3299;SDS011;1662;49.310;8.134;2023-12-22T12:00:09;2.00;;;1.57;;
3299;SDS011;1662;49.310;8.134;2023-12-22T12:03:02;1.13;;;1.13;;
3299;SDS011;1662;49.310;8.134;2023-12-22T12:05:31;4.17;;;1.40;;
3299;SDS011;1662;49.310;8.134;2023-12-22T12:08:01;2.83;;;0.90;;
3299;SDS011;1662;49.310;8.134;2023-12-22T12:13:16;1.53;;;0.90;;
3299;SDS011;1662;49.310;8.134;2023-12-22T12:15:50;2.20;;;1.00;;
3299;SDS011;1662;49.310;8.134;2023-12-22T12:18:17;0.90;;;0.90;;
3299;SDS011;1662;49.310;8.134;2023-12-22T12:20:47;0.90;;;0.90;;
3299;SDS011;1662;49.310;8.134;2023-12-22T12:23:14;1.00;;;1.00;;
3299;SDS011;1662;49.310;8.134;2023-12-22T12:25:41;2.77;;;1.20;;
3299;SDS011;1662;49.310;8.134;2023-12-22T12:28:07;1.40;;;1.30;;
3299;SDS011;1662;49.310;8.134;2023-12-22T12:30:34;1.37;;;1.23;;
3299;SDS011;1662;49.310;8.134;2023-12-22T12:35:34;0.70;;;0.70;;
3299;SDS011;1662;49.310;8.134;2023-12-22T12:38:00;1.20;;;1.10;;
3299;SDS011;1662;49.310;8.134;2023-12-22T12:40:28;0.90;;;0.90;;
3299;SDS011;1662;49.310;8.134;2023-12-22T12:42:55;0.77;;;0.77;;
3299;SDS011;1662;49.310;8.134;2023-12-22T12:45:24;0.87;;;0.87;;
3299;SDS011;1662;49.310;8.134;2023-12-22T12:48:00;1.33;;;1.00;;
3299;SDS011;1662;49.310;8.134;2023-12-22T12:50:27;1.73;;;0.83;;
3299;SDS011;1662;49.310;8.134;2023-12-22T12:52:54;0.80;;;0.80;;
3299;SDS011;1662;49.310;8.134;2023-12-22T12:55:21;1.03;;;1.03;;
3299;SDS011;1662;49.310;8.134;2023-12-22T12:57:54;0.90;;;0.90;;
3299;SDS011;1662;49.310;8.134;2023-12-22T13:00:24;0.90;;;0.90;;
3299;SDS011;1662;49.310;8.134;2023-12-22T13:02:50;1.00;;;1.00;;
3299;SDS011;1662;49.310;8.134;2023-12-22T13:05:22;0.83;;;0.83;;
3299;SDS011;1662;49.310;8.134;2023-12-22T13:07:51;1.30;;;1.10;;
3299;SDS011;1662;49.310;8.134;2023-12-22T13:10:28;1.13;;;1.13;;
3299;SDS011;1662;49.310;8.134;2023-12-22T13:12:54;1.13;;;1.13;;
3299;SDS011;1662;49.310;8.134;2023-12-22T13:15:22;3.20;;;1.23;;
3299;SDS011;1662;49.310;8.134;2023-12-22T13:17:48;0.80;;;0.80;;
3299;SDS011;1662;49.310;8.134;2023-12-22T13:20:14;1.10;;;1.00;;
3299;SDS011;1662;49.310;8.134;2023-12-22T13:22:40;1.07;;;1.07;;
3299;SDS011;1662;49.310;8.134;2023-12-22T13:25:09;1.03;;;1.03;;
3299;SDS011;1662;49.310;8.134;2023-12-22T13:27:53;1.27;;;1.07;;
3299;SDS011;1662;49.310;8.134;2023-12-22T13:32:59;1.10;;;1.10;;
3299;SDS011;1662;49.310;8.134;2023-12-22T13:35:24;1.00;;;1.00;;
3299;SDS011;1662;49.310;8.134;2023-12-22T13:37:51;1.23;;;1.20;;
3299;SDS011;1662;49.310;8.134;2023-12-22T13:40:18;0.90;;;0.90;;
3299;SDS011;1662;49.310;8.134;2023-12-22T13:42:43;0.90;;;0.90;;
3299;SDS011;1662;49.310;8.134;2023-12-22T13:45:12;2.97;;;1.00;;
3299;SDS011;1662;49.310;8.134;2023-12-22T13:47:41;0.90;;;0.90;;
3299;SDS011;1662;49.310;8.134;2023-12-22T13:50:17;0.90;;;0.90;;
3299;SDS011;1662;49.310;8.134;2023-12-22T13:52:44;0.90;;;0.90;;
3299;SDS011;1662;49.310;8.134;2023-12-22T13:55:13;1.20;;;1.20;;
3299;SDS011;1662;49.310;8.134;2023-12-22T13:57:40;1.23;;;1.20;;
3299;SDS011;1662;49.310;8.134;2023-12-22T14:02:47;1.47;;;1.20;;
3299;SDS011;1662;49.310;8.134;2023-12-22T14:05:17;1.40;;;1.30;;
3299;SDS011;1662;49.310;8.134;2023-12-22T14:07:44;3.33;;;1.10;;
3299;SDS011;1662;49.310;8.134;2023-12-22T14:10:10;1.20;;;1.10;;
3299;SDS011;1662;49.310;8.134;2023-12-22T14:12:36;0.90;;;0.90;;
3299;SDS011;1662;49.310;8.134;2023-12-22T14:15:05;1.23;;;0.90;;
3299;SDS011;1662;49.310;8.134;2023-12-22T14:17:35;1.40;;;1.30;;
3299;SDS011;1662;49.310;8.134;2023-12-22T14:20:01;1.10;;;1.10;;
3299;SDS011;1662;49.310;8.134;2023-12-22T14:22:34;1.07;;;1.07;;
3299;SDS011;1662;49.310;8.134;2023-12-22T14:25:01;1.20;;;1.20;;
3299;SDS011;1662;49.310;8.134;2023-12-22T14:27:26;0.87;;;0.87;;
3299;SDS011;1662;49.310;8.134;2023-12-22T14:29:52;1.63;;;1.20;;
3299;SDS011;1662;49.310;8.134;2023-12-22T14:32:18;0.90;;;0.90;;
3299;SDS011;1662;49.310;8.134;2023-12-22T14:34:46;1.10;;;1.10;;
3299;SDS011;1662;49.310;8.134;2023-12-22T14:37:14;1.03;;;1.00;;
3299;SDS011;1662;49.310;8.134;2023-12-22T14:39:43;1.10;;;1.10;;
3299;SDS011;1662;49.310;8.134;2023-12-22T14:42:10;1.47;;;1.30;;
3299;SDS011;1662;49.310;8.134;2023-12-22T14:44:36;1.33;;;1.23;;
3299;SDS011;1662;49.310;8.134;2023-12-22T14:47:03;1.00;;;1.00;;
3299;SDS011;1662;49.310;8.134;2023-12-22T14:49:30;1.17;;;1.17;;
3299;SDS011;1662;49.310;8.134;2023-12-22T14:51:55;1.23;;;1.13;;
3299;SDS011;1662;49.310;8.134;2023-12-22T14:54:23;1.20;;;1.20;;
3299;SDS011;1662;49.310;8.134;2023-12-22T14:56:49;2.47;;;1.20;;
3299;SDS011;1662;49.310;8.134;2023-12-22T14:59:15;0.80;;;0.80;;
3299;SDS011;1662;49.310;8.134;2023-12-22T15:01:41;1.57;;;1.50;;
3299;SDS011;1662;49.310;8.134;2023-12-22T15:04:07;1.37;;;1.27;;
3299;SDS011;1662;49.310;8.134;2023-12-22T15:06:37;2.40;;;1.23;;
3299;SDS011;1662;49.310;8.134;2023-12-22T15:09:04;1.07;;;1.07;;
3299;SDS011;1662;49.310;8.134;2023-12-22T15:11:29;3.50;;;1.10;;
3299;SDS011;1662;49.310;8.134;2023-12-22T15:13:55;1.50;;;1.40;;
3299;SDS011;1662;49.310;8.134;2023-12-22T15:16:20;2.57;;;1.23;;
3299;SDS011;1662;49.310;8.134;2023-12-22T15:18:46;1.03;;;1.03;;
3299;SDS011;1662;49.310;8.134;2023-12-22T15:21:21;1.53;;;1.43;;
3299;SDS011;1662;49.310;8.134;2023-12-22T15:23:47;1.67;;;1.30;;
3299;SDS011;1662;49.310;8.134;2023-12-22T15:26:20;2.43;;;1.20;;
3299;SDS011;1662;49.310;8.134;2023-12-22T15:28:46;1.83;;;1.30;;